sensor_id;sensor_type;location;lat;lon;timestamp;P1;durP1;ratioP1;P2;durP2;ratioP2
11086;SDS011;5597;47.588;9.642;2022-09-09T00:02:39;2.13;;;1.80;;
11086;SDS011;5597;47.588;9.642;2022-09-09T00:04:58;1.63;;;1.53;;
11086;SDS011;5597;47.588;9.642;2022-09-09T00:21:21;1.80;;;1.60;;
11086;SDS011;5597;47.588;9.642;2022-09-09T00:23:56;1.80;;;1.57;;
11086;SDS011;5597;47.588;9.642;2022-09-09T00:31:33;1.70;;;1.60;;
11086;SDS011;5597;47.588;9.642;2022-09-09T00:34:03;3.23;;;1.70;;
11086;SDS011;5597;47.588;9.642;2022-09-09T00:36:32;2.73;;;1.77;;
11086;SDS011;5597;47.588;9.642;2022-09-09T00:39:00;3.30;;;1.80;;
11086;SDS011;5597;47.588;9.642;2022-09-09T00:41:41;5.93;;;2.20;;
11086;SDS011;5597;47.588;9.642;2022-09-09T00:44:31;2.50;;;2.03;;
11086;SDS011;5597;47.588;9.642;2022-09-09T00:49:57;1.70;;;1.60;;
11086;SDS011;5597;47.588;9.642;2022-09-09T00:53:01;2.33;;;1.90;;
11086;SDS011;5597;47.588;9.642;2022-09-09T00:55:51;2.40;;;1.77;;
11086;SDS011;5597;47.588;9.642;2022-09-09T00:58:25;2.40;;;1.70;;
11086;SDS011;5597;47.588;9.642;2022-09-09T01:01:03;2.07;;;1.77;;
11086;SDS011;5597;47.588;9.642;2022-09-09T01:03:45;3.33;;;1.83;;
11086;SDS011;5597;47.588;9.642;2022-09-09T01:06:37;2.23;;;1.70;;
11086;SDS011;5597;47.588;9.642;2022-09-09T01:14:24;2.00;;;1.60;;
11086;SDS011;5597;47.588;9.642;2022-09-09T01:16:54;1.63;;;1.47;;
11086;SDS011;5597;47.588;9.642;2022-09-09T01:19:27;1.60;;;1.50;;
11086;SDS011;5597;47.588;9.642;2022-09-09T01:27:33;3.03;;;1.73;;
11086;SDS011;5597;47.588;9.642;2022-09-09T01:30:00;1.60;;;1.50;;
11086;SDS011;5597;47.588;9.642;2022-09-09T01:33:03;1.50;;;1.40;;
11086;SDS011;5597;47.588;9.642;2022-09-09T01:38:13;1.80;;;1.57;;
11086;SDS011;5597;47.588;9.642;2022-09-09T01:40:39;1.50;;;1.40;;
11086;SDS011;5597;47.588;9.642;2022-09-09T01:43:05;3.00;;;1.40;;
11086;SDS011;5597;47.588;9.642;2022-09-09T01:45:32;1.70;;;1.60;;
11086;SDS011;5597;47.588;9.642;2022-09-09T01:47:58;1.70;;;1.53;;
11086;SDS011;5597;47.588;9.642;2022-09-09T01:50:25;1.83;;;1.60;;
11086;SDS011;5597;47.588;9.642;2022-09-09T01:52:52;2.90;;;1.70;;
11086;SDS011;5597;47.588;9.642;2022-09-09T01:55:29;2.63;;;1.60;;
11086;SDS011;5597;47.588;9.642;2022-09-09T02:00:43;2.67;;;1.60;;
11086;SDS011;5597;47.588;9.642;2022-09-09T02:03:25;1.73;;;1.57;;
11086;SDS011;5597;47.588;9.642;2022-09-09T02:06:00;3.20;;;1.70;;
11086;SDS011;5597;47.588;9.642;2022-09-09T02:08:29;1.73;;;1.63;;
11086;SDS011;5597;47.588;9.642;2022-09-09T02:13:36;1.83;;;1.60;;
11086;SDS011;5597;47.588;9.642;2022-09-09T02:16:07;1.80;;;1.70;;
11086;SDS011;5597;47.588;9.642;2022-09-09T02:21:18;2.40;;;1.83;;
11086;SDS011;5597;47.588;9.642;2022-09-09T02:23:44;2.77;;;1.50;;
11086;SDS011;5597;47.588;9.642;2022-09-09T02:26:13;2.23;;;1.60;;
11086;SDS011;5597;47.588;9.642;2022-09-09T02:28:45;1.90;;;1.70;;
11086;SDS011;5597;47.588;9.642;2022-09-09T02:31:14;3.10;;;1.60;;
11086;SDS011;5597;47.588;9.642;2022-09-09T02:33:43;1.80;;;1.70;;
11086;SDS011;5597;47.588;9.642;2022-09-09T02:36:12;1.67;;;1.50;;
11086;SDS011;5597;47.588;9.642;2022-09-09T02:38:42;2.83;;;1.53;;
11086;SDS011;5597;47.588;9.642;2022-09-09T02:41:15;1.60;;;1.50;;
11086;SDS011;5597;47.588;9.642;2022-09-09T02:43:46;1.80;;;1.50;;
11086;SDS011;5597;47.588;9.642;2022-09-09T02:46:20;1.60;;;1.50;;
11086;SDS011;5597;47.588;9.642;2022-09-09T02:49:09;1.63;;;1.50;;
11086;SDS011;5597;47.588;9.642;2022-09-09T02:54:27;1.63;;;1.53;;
11086;SDS011;5597;47.588;9.642;2022-09-09T02:57:08;2.60;;;1.37;;
11086;SDS011;5597;47.588;9.642;2022-09-09T02:59:38;2.63;;;1.73;;
11086;SDS011;5597;47.588;9.642;2022-09-09T03:02:04;1.90;;;1.43;;
11086;SDS011;5597;47.588;9.642;2022-09-09T03:04:30;2.83;;;1.30;;
11086;SDS011;5597;47.588;9.642;2022-09-09T03:06:56;1.93;;;1.60;;
11086;SDS011;5597;47.588;9.642;2022-09-09T03:09:23;2.00;;;1.73;;
11086;SDS011;5597;47.588;9.642;2022-09-09T03:11:49;1.40;;;1.30;;
11086;SDS011;5597;47.588;9.642;2022-09-09T03:14:15;1.80;;;1.70;;
11086;SDS011;5597;47.588;9.642;2022-09-09T03:16:41;1.80;;;1.60;;
11086;SDS011;5597;47.588;9.642;2022-09-09T03:19:08;2.27;;;1.70;;
11086;SDS011;5597;47.588;9.642;2022-09-09T03:21:34;1.60;;;1.50;;
11086;SDS011;5597;47.588;9.642;2022-09-09T03:24:00;2.30;;;1.40;;
11086;SDS011;5597;47.588;9.642;2022-09-09T03:26:28;1.60;;;1.40;;
11086;SDS011;5597;47.588;9.642;2022-09-09T03:28:55;1.77;;;1.40;;
11086;SDS011;5597;47.588;9.642;2022-09-09T03:31:21;1.47;;;1.37;;
11086;SDS011;5597;47.588;9.642;2022-09-09T03:33:46;1.60;;;1.30;;
11086;SDS011;5597;47.588;9.642;2022-09-09T03:36:12;1.40;;;1.30;;
11086;SDS011;5597;47.588;9.642;2022-09-09T03:38:39;1.57;;;1.30;;
11086;SDS011;5597;47.588;9.642;2022-09-09T03:41:05;1.70;;;1.50;;
11086;SDS011;5597;47.588;9.642;2022-09-09T03:43:32;1.90;;;1.27;;
11086;SDS011;5597;47.588;9.642;2022-09-09T03:45:58;1.80;;;1.53;;
11086;SDS011;5597;47.588;9.642;2022-09-09T03:48:23;1.70;;;1.50;;
11086;SDS011;5597;47.588;9.642;2022-09-09T03:50:51;2.60;;;1.57;;
11086;SDS011;5597;47.588;9.642;2022-09-09T03:53:18;1.57;;;1.47;;
11086;SDS011;5597;47.588;9.642;2022-09-09T03:55:46;1.80;;;1.70;;
11086;SDS011;5597;47.588;9.642;2022-09-09T03:58:13;2.17;;;1.60;;
11086;SDS011;5597;47.588;9.642;2022-09-09T04:00:40;2.00;;;1.80;;
11086;SDS011;5597;47.588;9.642;2022-09-09T04:03:07;1.60;;;1.50;;
11086;SDS011;5597;47.588;9.642;2022-09-09T04:05:36;2.30;;;1.60;;
11086;SDS011;5597;47.588;9.642;2022-09-09T04:08:05;1.77;;;1.40;;
11086;SDS011;5597;47.588;9.642;2022-09-09T04:10:31;2.00;;;1.73;;
11086;SDS011;5597;47.588;9.642;2022-09-09T04:12:57;1.40;;;1.30;;
11086;SDS011;5597;47.588;9.642;2022-09-09T04:15:22;2.13;;;1.70;;
11086;SDS011;5597;47.588;9.642;2022-09-09T04:17:48;1.70;;;1.60;;
11086;SDS011;5597;47.588;9.642;2022-09-09T04:20:14;1.67;;;1.57;;
11086;SDS011;5597;47.588;9.642;2022-09-09T04:22:40;2.43;;;1.70;;
11086;SDS011;5597;47.588;9.642;2022-09-09T04:25:06;1.97;;;1.60;;
11086;SDS011;5597;47.588;9.642;2022-09-09T04:27:31;1.83;;;1.40;;
11086;SDS011;5597;47.588;9.642;2022-09-09T04:29:57;2.30;;;1.60;;
11086;SDS011;5597;47.588;9.642;2022-09-09T04:32:23;1.87;;;1.57;;
11086;SDS011;5597;47.588;9.642;2022-09-09T04:34:52;2.20;;;2.00;;
11086;SDS011;5597;47.588;9.642;2022-09-09T04:37:17;2.27;;;1.80;;
11086;SDS011;5597;47.588;9.642;2022-09-09T04:39:43;2.60;;;2.10;;
11086;SDS011;5597;47.588;9.642;2022-09-09T04:42:08;2.30;;;1.60;;
11086;SDS011;5597;47.588;9.642;2022-09-09T04:44:34;4.33;;;2.20;;
11086;SDS011;5597;47.588;9.642;2022-09-09T04:46:59;3.63;;;2.27;;
11086;SDS011;5597;47.588;9.642;2022-09-09T04:49:25;3.77;;;2.27;;
11086;SDS011;5597;47.588;9.642;2022-09-09T04:51:51;3.90;;;2.33;;
11086;SDS011;5597;47.588;9.642;2022-09-09T04:54:17;2.50;;;2.30;;
11086;SDS011;5597;47.588;9.642;2022-09-09T04:56:42;3.83;;;2.23;;
11086;SDS011;5597;47.588;9.642;2022-09-09T04:59:08;2.73;;;2.03;;
11086;SDS011;5597;47.588;9.642;2022-09-09T05:01:35;2.40;;;2.00;;
11086;SDS011;5597;47.588;9.642;2022-09-09T05:04:01;2.67;;;2.00;;
11086;SDS011;5597;47.588;9.642;2022-09-09T05:06:27;2.30;;;1.90;;
11086;SDS011;5597;47.588;9.642;2022-09-09T05:08:56;2.17;;;1.90;;
11086;SDS011;5597;47.588;9.642;2022-09-09T05:11:23;1.80;;;1.70;;
11086;SDS011;5597;47.588;9.642;2022-09-09T05:13:51;1.50;;;1.40;;
11086;SDS011;5597;47.588;9.642;2022-09-09T05:16:17;1.80;;;1.70;;
11086;SDS011;5597;47.588;9.642;2022-09-09T05:18:44;1.80;;;1.60;;
11086;SDS011;5597;47.588;9.642;2022-09-09T05:21:11;1.53;;;1.40;;
11086;SDS011;5597;47.588;9.642;2022-09-09T05:23:37;1.83;;;1.60;;
11086;SDS011;5597;47.588;9.642;2022-09-09T05:26:04;2.23;;;1.63;;
11086;SDS011;5597;47.588;9.642;2022-09-09T05:28:30;2.00;;;1.80;;
11086;SDS011;5597;47.588;9.642;2022-09-09T05:30:59;3.23;;;1.93;;
11086;SDS011;5597;47.588;9.642;2022-09-09T05:33:28;4.10;;;1.70;;
11086;SDS011;5597;47.588;9.642;2022-09-09T05:36:04;1.80;;;1.70;;
11086;SDS011;5597;47.588;9.642;2022-09-09T05:38:32;3.53;;;1.90;;
11086;SDS011;5597;47.588;9.642;2022-09-09T05:40:59;3.07;;;2.10;;
11086;SDS011;5597;47.588;9.642;2022-09-09T05:43:25;3.37;;;1.83;;
11086;SDS011;5597;47.588;9.642;2022-09-09T05:48:31;3.00;;;1.50;;
11086;SDS011;5597;47.588;9.642;2022-09-09T05:50:58;2.23;;;1.60;;
11086;SDS011;5597;47.588;9.642;2022-09-09T05:53:24;2.57;;;1.57;;
11086;SDS011;5597;47.588;9.642;2022-09-09T05:55:58;2.87;;;1.60;;
11086;SDS011;5597;47.588;9.642;2022-09-09T05:58:24;1.70;;;1.60;;
11086;SDS011;5597;47.588;9.642;2022-09-09T06:00:50;2.40;;;1.53;;
11086;SDS011;5597;47.588;9.642;2022-09-09T06:03:15;1.40;;;1.30;;
11086;SDS011;5597;47.588;9.642;2022-09-09T06:05:42;1.87;;;1.20;;
11086;SDS011;5597;47.588;9.642;2022-09-09T06:08:07;1.60;;;1.40;;
11086;SDS011;5597;47.588;9.642;2022-09-09T06:10:33;1.30;;;1.10;;
11086;SDS011;5597;47.588;9.642;2022-09-09T06:12:59;1.63;;;1.23;;
11086;SDS011;5597;47.588;9.642;2022-09-09T06:15:25;1.57;;;1.30;;
11086;SDS011;5597;47.588;9.642;2022-09-09T06:17:55;1.80;;;1.40;;
11086;SDS011;5597;47.588;9.642;2022-09-09T06:20:21;2.87;;;1.70;;
11086;SDS011;5597;47.588;9.642;2022-09-09T06:22:50;4.10;;;2.20;;
11086;SDS011;5597;47.588;9.642;2022-09-09T06:25:15;2.70;;;1.93;;
11086;SDS011;5597;47.588;9.642;2022-09-09T06:27:41;2.50;;;1.73;;
11086;SDS011;5597;47.588;9.642;2022-09-09T06:30:07;3.60;;;2.30;;
11086;SDS011;5597;47.588;9.642;2022-09-09T06:32:33;3.77;;;2.10;;
11086;SDS011;5597;47.588;9.642;2022-09-09T06:35:01;8.80;;;3.80;;
11086;SDS011;5597;47.588;9.642;2022-09-09T06:37:27;4.13;;;2.40;;
11086;SDS011;5597;47.588;9.642;2022-09-09T06:39:53;2.40;;;1.73;;
11086;SDS011;5597;47.588;9.642;2022-09-09T06:42:19;1.70;;;1.50;;
11086;SDS011;5597;47.588;9.642;2022-09-09T06:44:45;1.70;;;1.43;;
11086;SDS011;5597;47.588;9.642;2022-09-09T06:47:10;2.97;;;1.50;;
11086;SDS011;5597;47.588;9.642;2022-09-09T06:49:36;1.93;;;1.40;;
11086;SDS011;5597;47.588;9.642;2022-09-09T06:52:01;2.23;;;1.50;;
11086;SDS011;5597;47.588;9.642;2022-09-09T06:54:27;1.40;;;1.17;;
11086;SDS011;5597;47.588;9.642;2022-09-09T06:56:53;1.47;;;1.17;;
11086;SDS011;5597;47.588;9.642;2022-09-09T06:59:19;2.17;;;1.40;;
11086;SDS011;5597;47.588;9.642;2022-09-09T07:01:44;1.67;;;1.37;;
11086;SDS011;5597;47.588;9.642;2022-09-09T07:04:11;1.70;;;1.30;;
11086;SDS011;5597;47.588;9.642;2022-09-09T07:06:40;2.30;;;1.53;;
11086;SDS011;5597;47.588;9.642;2022-09-09T07:09:11;1.77;;;1.40;;
11086;SDS011;5597;47.588;9.642;2022-09-09T07:11:49;1.50;;;1.40;;
11086;SDS011;5597;47.588;9.642;2022-09-09T07:14:17;1.30;;;1.20;;
11086;SDS011;5597;47.588;9.642;2022-09-09T07:16:44;2.10;;;1.30;;
11086;SDS011;5597;47.588;9.642;2022-09-09T07:19:10;1.83;;;1.20;;
11086;SDS011;5597;47.588;9.642;2022-09-09T07:21:37;2.07;;;1.30;;
11086;SDS011;5597;47.588;9.642;2022-09-09T07:24:05;1.57;;;1.10;;
11086;SDS011;5597;47.588;9.642;2022-09-09T07:26:32;1.90;;;1.17;;
11086;SDS011;5597;47.588;9.642;2022-09-09T07:28:58;3.10;;;1.50;;
11086;SDS011;5597;47.588;9.642;2022-09-09T07:31:25;1.63;;;1.10;;
11086;SDS011;5597;47.588;9.642;2022-09-09T07:33:55;2.17;;;1.43;;
11086;SDS011;5597;47.588;9.642;2022-09-09T07:36:23;1.60;;;1.20;;
11086;SDS011;5597;47.588;9.642;2022-09-09T07:38:54;1.27;;;1.00;;
11086;SDS011;5597;47.588;9.642;2022-09-09T07:41:29;3.13;;;1.17;;
11086;SDS011;5597;47.588;9.642;2022-09-09T07:43:58;1.97;;;1.20;;
11086;SDS011;5597;47.588;9.642;2022-09-09T07:46:25;1.27;;;1.10;;
11086;SDS011;5597;47.588;9.642;2022-09-09T07:48:55;1.53;;;1.03;;
11086;SDS011;5597;47.588;9.642;2022-09-09T07:51:26;2.00;;;1.23;;
11086;SDS011;5597;47.588;9.642;2022-09-09T07:54:00;1.10;;;1.00;;
11086;SDS011;5597;47.588;9.642;2022-09-09T07:56:27;1.50;;;1.10;;
11086;SDS011;5597;47.588;9.642;2022-09-09T07:58:55;1.83;;;1.23;;
11086;SDS011;5597;47.588;9.642;2022-09-09T08:03:53;1.87;;;1.00;;
11086;SDS011;5597;47.588;9.642;2022-09-09T08:06:27;1.93;;;1.10;;
11086;SDS011;5597;47.588;9.642;2022-09-09T08:09:00;1.87;;;1.00;;
11086;SDS011;5597;47.588;9.642;2022-09-09T08:11:26;1.80;;;1.20;;
11086;SDS011;5597;47.588;9.642;2022-09-09T08:13:53;2.90;;;1.20;;
11086;SDS011;5597;47.588;9.642;2022-09-09T08:16:21;1.13;;;0.97;;
11086;SDS011;5597;47.588;9.642;2022-09-09T08:18:49;1.30;;;1.03;;
11086;SDS011;5597;47.588;9.642;2022-09-09T08:21:21;1.57;;;1.10;;
11086;SDS011;5597;47.588;9.642;2022-09-09T08:23:50;1.10;;;1.00;;
11086;SDS011;5597;47.588;9.642;2022-09-09T08:28:48;1.10;;;0.90;;
11086;SDS011;5597;47.588;9.642;2022-09-09T08:31:22;1.00;;;0.90;;
11086;SDS011;5597;47.588;9.642;2022-09-09T08:33:49;1.53;;;0.97;;
11086;SDS011;5597;47.588;9.642;2022-09-09T08:36:17;1.93;;;1.00;;
11086;SDS011;5597;47.588;9.642;2022-09-09T08:38:47;1.60;;;0.90;;
11086;SDS011;5597;47.588;9.642;2022-09-09T08:43:50;2.10;;;1.10;;
11086;SDS011;5597;47.588;9.642;2022-09-09T08:47:03;2.53;;;1.20;;
11086;SDS011;5597;47.588;9.642;2022-09-09T08:55:22;1.73;;;1.00;;
11086;SDS011;5597;47.588;9.642;2022-09-09T08:57:52;1.00;;;0.90;;
11086;SDS011;5597;47.588;9.642;2022-09-09T09:00:20;2.10;;;1.57;;
11086;SDS011;5597;47.588;9.642;2022-09-09T09:05:32;1.87;;;1.50;;
11086;SDS011;5597;47.588;9.642;2022-09-09T09:08:17;3.13;;;1.60;;
11086;SDS011;5597;47.588;9.642;2022-09-09T09:10:49;2.87;;;1.43;;
11086;SDS011;5597;47.588;9.642;2022-09-09T09:13:19;2.97;;;1.60;;
11086;SDS011;5597;47.588;9.642;2022-09-09T09:16:19;2.47;;;1.50;;
11086;SDS011;5597;47.588;9.642;2022-09-09T09:18:47;1.63;;;1.20;;
11086;SDS011;5597;47.588;9.642;2022-09-09T09:21:17;1.40;;;1.10;;
11086;SDS011;5597;47.588;9.642;2022-09-09T09:23:59;1.50;;;1.20;;
11086;SDS011;5597;47.588;9.642;2022-09-09T09:26:30;1.60;;;1.00;;
11086;SDS011;5597;47.588;9.642;2022-09-09T09:28:58;4.10;;;1.23;;
11086;SDS011;5597;47.588;9.642;2022-09-09T09:31:25;1.73;;;1.07;;
11086;SDS011;5597;47.588;9.642;2022-09-09T09:33:54;2.27;;;1.20;;
11086;SDS011;5597;47.588;9.642;2022-09-09T09:36:34;1.47;;;0.87;;
11086;SDS011;5597;47.588;9.642;2022-09-09T09:39:24;1.33;;;0.93;;
11086;SDS011;5597;47.588;9.642;2022-09-09T09:42:14;0.90;;;0.90;;
11086;SDS011;5597;47.588;9.642;2022-09-09T09:44:42;2.20;;;0.90;;
11086;SDS011;5597;47.588;9.642;2022-09-09T09:47:13;2.37;;;1.00;;
11086;SDS011;5597;47.588;9.642;2022-09-09T09:49:56;1.67;;;0.90;;
11086;SDS011;5597;47.588;9.642;2022-09-09T09:52:26;3.03;;;1.20;;
11086;SDS011;5597;47.588;9.642;2022-09-09T09:54:55;2.50;;;0.80;;
11086;SDS011;5597;47.588;9.642;2022-09-09T09:57:28;2.60;;;0.90;;
11086;SDS011;5597;47.588;9.642;2022-09-09T10:02:37;0.97;;;0.73;;
11086;SDS011;5597;47.588;9.642;2022-09-09T10:05:18;1.53;;;1.10;;
11086;SDS011;5597;47.588;9.642;2022-09-09T10:07:46;1.50;;;0.87;;
11086;SDS011;5597;47.588;9.642;2022-09-09T10:10:26;1.23;;;0.83;;
11086;SDS011;5597;47.588;9.642;2022-09-09T10:13:07;2.00;;;1.00;;
11086;SDS011;5597;47.588;9.642;2022-09-09T10:21:19;1.63;;;1.00;;
11086;SDS011;5597;47.588;9.642;2022-09-09T10:23:59;2.23;;;0.90;;
11086;SDS011;5597;47.588;9.642;2022-09-09T10:26:49;2.13;;;0.90;;
11086;SDS011;5597;47.588;9.642;2022-09-09T10:40:48;1.30;;;0.90;;
11086;SDS011;5597;47.588;9.642;2022-09-09T10:46:16;1.13;;;0.90;;
11086;SDS011;5597;47.588;9.642;2022-09-09T10:51:48;1.13;;;0.67;;
11086;SDS011;5597;47.588;9.642;2022-09-09T10:56:43;1.83;;;0.70;;
11086;SDS011;5597;47.588;9.642;2022-09-09T10:59:26;1.70;;;0.90;;
11086;SDS011;5597;47.588;9.642;2022-09-09T11:02:00;2.10;;;0.80;;
11086;SDS011;5597;47.588;9.642;2022-09-09T11:04:49;1.47;;;0.77;;
11086;SDS011;5597;47.588;9.642;2022-09-09T11:07:28;1.03;;;0.70;;
11086;SDS011;5597;47.588;9.642;2022-09-09T11:10:01;1.57;;;0.63;;
11086;SDS011;5597;47.588;9.642;2022-09-09T11:12:31;1.57;;;0.67;;
11086;SDS011;5597;47.588;9.642;2022-09-09T11:17:33;0.80;;;0.60;;
11086;SDS011;5597;47.588;9.642;2022-09-09T11:20:00;1.63;;;0.80;;
11086;SDS011;5597;47.588;9.642;2022-09-09T11:22:36;1.27;;;0.80;;
11086;SDS011;5597;47.588;9.642;2022-09-09T11:28:10;1.00;;;0.70;;
11086;SDS011;5597;47.588;9.642;2022-09-09T11:42:06;1.30;;;0.70;;
11086;SDS011;5597;47.588;9.642;2022-09-09T11:44:38;2.93;;;1.23;;
11086;SDS011;5597;47.588;9.642;2022-09-09T11:47:15;1.87;;;1.10;;
11086;SDS011;5597;47.588;9.642;2022-09-09T11:49:49;1.27;;;0.87;;
11086;SDS011;5597;47.588;9.642;2022-09-09T11:52:34;1.60;;;1.00;;
11086;SDS011;5597;47.588;9.642;2022-09-09T11:55:19;0.93;;;0.80;;
11086;SDS011;5597;47.588;9.642;2022-09-09T11:57:59;1.13;;;0.90;;
11086;SDS011;5597;47.588;9.642;2022-09-09T12:00:45;1.90;;;0.90;;
11086;SDS011;5597;47.588;9.642;2022-09-09T12:06:27;2.30;;;0.93;;
11086;SDS011;5597;47.588;9.642;2022-09-09T12:08:58;1.23;;;0.90;;
11086;SDS011;5597;47.588;9.642;2022-09-09T12:11:49;1.40;;;0.97;;
11086;SDS011;5597;47.588;9.642;2022-09-09T12:14:22;1.97;;;1.00;;
11086;SDS011;5597;47.588;9.642;2022-09-09T12:17:20;1.13;;;0.90;;
11086;SDS011;5597;47.588;9.642;2022-09-09T12:19:47;1.00;;;0.90;;
11086;SDS011;5597;47.588;9.642;2022-09-09T12:28:11;1.20;;;0.70;;
11086;SDS011;5597;47.588;9.642;2022-09-09T12:33:51;1.47;;;0.90;;
11086;SDS011;5597;47.588;9.642;2022-09-09T12:36:18;1.30;;;1.00;;
11086;SDS011;5597;47.588;9.642;2022-09-09T12:38:55;1.90;;;0.93;;
11086;SDS011;5597;47.588;9.642;2022-09-09T12:41:25;1.20;;;0.93;;
11086;SDS011;5597;47.588;9.642;2022-09-09T12:44:02;1.03;;;0.70;;
11086;SDS011;5597;47.588;9.642;2022-09-09T12:46:38;1.57;;;0.90;;
11086;SDS011;5597;47.588;9.642;2022-09-09T12:52:07;1.20;;;0.90;;
11086;SDS011;5597;47.588;9.642;2022-09-09T12:54:42;1.23;;;0.90;;
11086;SDS011;5597;47.588;9.642;2022-09-09T12:57:10;1.93;;;1.10;;
11086;SDS011;5597;47.588;9.642;2022-09-09T12:59:38;1.90;;;0.90;;
11086;SDS011;5597;47.588;9.642;2022-09-09T13:02:26;1.40;;;0.87;;
11086;SDS011;5597;47.588;9.642;2022-09-09T13:04:53;1.53;;;0.90;;
11086;SDS011;5597;47.588;9.642;2022-09-09T13:07:19;1.17;;;0.90;;
11086;SDS011;5597;47.588;9.642;2022-09-09T13:09:47;3.03;;;1.17;;
11086;SDS011;5597;47.588;9.642;2022-09-09T13:12:18;1.47;;;1.00;;
11086;SDS011;5597;47.588;9.642;2022-09-09T13:14:46;2.30;;;1.10;;
11086;SDS011;5597;47.588;9.642;2022-09-09T13:17:22;2.33;;;1.10;;
11086;SDS011;5597;47.588;9.642;2022-09-09T13:19:50;2.00;;;1.10;;
11086;SDS011;5597;47.588;9.642;2022-09-09T13:22:29;1.30;;;1.00;;
11086;SDS011;5597;47.588;9.642;2022-09-09T13:24:59;1.07;;;0.70;;
11086;SDS011;5597;47.588;9.642;2022-09-09T13:27:32;2.03;;;0.80;;
11086;SDS011;5597;47.588;9.642;2022-09-09T13:29:59;2.43;;;1.00;;
11086;SDS011;5597;47.588;9.642;2022-09-09T13:32:26;1.57;;;0.90;;
11086;SDS011;5597;47.588;9.642;2022-09-09T13:37:35;2.07;;;1.20;;
11086;SDS011;5597;47.588;9.642;2022-09-09T13:40:02;3.43;;;1.00;;
11086;SDS011;5597;47.588;9.642;2022-09-09T13:42:31;1.00;;;0.87;;
11086;SDS011;5597;47.588;9.642;2022-09-09T13:45:00;1.20;;;0.93;;
11086;SDS011;5597;47.588;9.642;2022-09-09T13:47:27;1.50;;;1.00;;
11086;SDS011;5597;47.588;9.642;2022-09-09T13:49:56;1.40;;;0.80;;
11086;SDS011;5597;47.588;9.642;2022-09-09T13:52:22;2.70;;;1.13;;
11086;SDS011;5597;47.588;9.642;2022-09-09T13:54:49;1.37;;;0.90;;
11086;SDS011;5597;47.588;9.642;2022-09-09T13:59:43;1.50;;;0.90;;
11086;SDS011;5597;47.588;9.642;2022-09-09T14:02:09;1.50;;;1.13;;
11086;SDS011;5597;47.588;9.642;2022-09-09T14:04:34;1.67;;;0.90;;
11086;SDS011;5597;47.588;9.642;2022-09-09T14:07:00;1.47;;;0.90;;
11086;SDS011;5597;47.588;9.642;2022-09-09T14:09:26;2.23;;;1.17;;
11086;SDS011;5597;47.588;9.642;2022-09-09T14:11:52;1.07;;;0.90;;
11086;SDS011;5597;47.588;9.642;2022-09-09T14:14:17;1.10;;;0.80;;
11086;SDS011;5597;47.588;9.642;2022-09-09T14:16:43;1.97;;;1.00;;
11086;SDS011;5597;47.588;9.642;2022-09-09T14:19:09;2.27;;;1.10;;
11086;SDS011;5597;47.588;9.642;2022-09-09T14:21:34;2.37;;;1.10;;
11086;SDS011;5597;47.588;9.642;2022-09-09T14:24:00;1.50;;;0.93;;
11086;SDS011;5597;47.588;9.642;2022-09-09T14:26:26;3.00;;;1.27;;
11086;SDS011;5597;47.588;9.642;2022-09-09T14:28:53;2.00;;;1.10;;
11086;SDS011;5597;47.588;9.642;2022-09-09T14:31:19;1.93;;;1.17;;
11086;SDS011;5597;47.588;9.642;2022-09-09T14:33:46;1.57;;;1.10;;
11086;SDS011;5597;47.588;9.642;2022-09-09T14:36:11;1.97;;;1.10;;
11086;SDS011;5597;47.588;9.642;2022-09-09T14:38:37;1.27;;;0.70;;
11086;SDS011;5597;47.588;9.642;2022-09-09T14:41:11;1.67;;;0.97;;
11086;SDS011;5597;47.588;9.642;2022-09-09T14:43:38;2.30;;;1.10;;
11086;SDS011;5597;47.588;9.642;2022-09-09T14:46:05;1.90;;;1.03;;
11086;SDS011;5597;47.588;9.642;2022-09-09T14:48:31;0.80;;;0.70;;
11086;SDS011;5597;47.588;9.642;2022-09-09T14:51:03;1.20;;;0.90;;
11086;SDS011;5597;47.588;9.642;2022-09-09T14:53:30;2.00;;;0.77;;
11086;SDS011;5597;47.588;9.642;2022-09-09T14:56:02;2.33;;;0.80;;
11086;SDS011;5597;47.588;9.642;2022-09-09T14:58:36;1.50;;;0.90;;
11086;SDS011;5597;47.588;9.642;2022-09-09T15:01:06;1.63;;;0.80;;
11086;SDS011;5597;47.588;9.642;2022-09-09T15:03:35;1.20;;;0.80;;
11086;SDS011;5597;47.588;9.642;2022-09-09T15:06:08;0.83;;;0.70;;
11086;SDS011;5597;47.588;9.642;2022-09-09T15:08:36;1.07;;;0.70;;
11086;SDS011;5597;47.588;9.642;2022-09-09T15:11:03;1.33;;;0.70;;
11086;SDS011;5597;47.588;9.642;2022-09-09T15:13:30;1.20;;;0.70;;
11086;SDS011;5597;47.588;9.642;2022-09-09T15:15:55;1.60;;;0.93;;
11086;SDS011;5597;47.588;9.642;2022-09-09T15:18:27;1.20;;;1.00;;
11086;SDS011;5597;47.588;9.642;2022-09-09T15:20:54;1.40;;;0.90;;
11086;SDS011;5597;47.588;9.642;2022-09-09T15:23:19;1.07;;;0.90;;
11086;SDS011;5597;47.588;9.642;2022-09-09T15:25:52;1.80;;;1.00;;
11086;SDS011;5597;47.588;9.642;2022-09-09T15:28:18;1.33;;;0.90;;
11086;SDS011;5597;47.588;9.642;2022-09-09T15:30:46;1.97;;;1.17;;
11086;SDS011;5597;47.588;9.642;2022-09-09T15:33:13;1.93;;;1.00;;
11086;SDS011;5597;47.588;9.642;2022-09-09T15:35:39;1.27;;;0.90;;
11086;SDS011;5597;47.588;9.642;2022-09-09T15:38:04;1.57;;;1.00;;
11086;SDS011;5597;47.588;9.642;2022-09-09T15:40:30;1.47;;;0.80;;
11086;SDS011;5597;47.588;9.642;2022-09-09T15:42:59;1.33;;;0.87;;
11086;SDS011;5597;47.588;9.642;2022-09-09T15:45:25;1.60;;;1.00;;
11086;SDS011;5597;47.588;9.642;2022-09-09T15:47:51;1.43;;;0.90;;
11086;SDS011;5597;47.588;9.642;2022-09-09T15:50:17;1.00;;;0.80;;
11086;SDS011;5597;47.588;9.642;2022-09-09T15:52:43;2.13;;;0.90;;
11086;SDS011;5597;47.588;9.642;2022-09-09T15:55:09;0.77;;;0.70;;
11086;SDS011;5597;47.588;9.642;2022-09-09T15:57:35;2.40;;;1.10;;
11086;SDS011;5597;47.588;9.642;2022-09-09T16:00:01;2.77;;;1.00;;
11086;SDS011;5597;47.588;9.642;2022-09-09T16:02:29;1.87;;;0.90;;
11086;SDS011;5597;47.588;9.642;2022-09-09T16:04:55;1.37;;;1.03;;
11086;SDS011;5597;47.588;9.642;2022-09-09T16:07:22;1.87;;;1.07;;
11086;SDS011;5597;47.588;9.642;2022-09-09T16:09:48;1.10;;;1.00;;
11086;SDS011;5597;47.588;9.642;2022-09-09T16:12:16;0.90;;;0.77;;
11086;SDS011;5597;47.588;9.642;2022-09-09T16:14:42;1.50;;;0.90;;
11086;SDS011;5597;47.588;9.642;2022-09-09T16:17:07;1.90;;;1.00;;
11086;SDS011;5597;47.588;9.642;2022-09-09T16:19:33;1.53;;;0.80;;
11086;SDS011;5597;47.588;9.642;2022-09-09T16:21:59;1.93;;;1.00;;
11086;SDS011;5597;47.588;9.642;2022-09-09T16:24:25;1.77;;;1.47;;
11086;SDS011;5597;47.588;9.642;2022-09-09T16:26:52;1.30;;;1.20;;
11086;SDS011;5597;47.588;9.642;2022-09-09T16:29:19;1.63;;;1.20;;
11086;SDS011;5597;47.588;9.642;2022-09-09T16:31:46;1.60;;;1.10;;
11086;SDS011;5597;47.588;9.642;2022-09-09T16:34:13;1.20;;;1.10;;
11086;SDS011;5597;47.588;9.642;2022-09-09T16:36:40;1.60;;;1.00;;
11086;SDS011;5597;47.588;9.642;2022-09-09T16:39:07;1.00;;;0.90;;
11086;SDS011;5597;47.588;9.642;2022-09-09T16:41:36;1.37;;;1.03;;
11086;SDS011;5597;47.588;9.642;2022-09-09T16:44:03;1.27;;;0.90;;
11086;SDS011;5597;47.588;9.642;2022-09-09T16:46:31;1.33;;;0.90;;
11086;SDS011;5597;47.588;9.642;2022-09-09T16:48:59;1.57;;;0.90;;
11086;SDS011;5597;47.588;9.642;2022-09-09T16:51:29;1.60;;;0.97;;
11086;SDS011;5597;47.588;9.642;2022-09-09T16:54:00;1.70;;;1.10;;
11086;SDS011;5597;47.588;9.642;2022-09-09T16:56:29;0.80;;;0.80;;
11086;SDS011;5597;47.588;9.642;2022-09-09T16:59:00;2.03;;;1.20;;
11086;SDS011;5597;47.588;9.642;2022-09-09T17:01:30;1.37;;;0.97;;
11086;SDS011;5597;47.588;9.642;2022-09-09T17:03:58;2.30;;;1.00;;
11086;SDS011;5597;47.588;9.642;2022-09-09T17:06:26;0.80;;;0.80;;
11086;SDS011;5597;47.588;9.642;2022-09-09T17:08:55;0.80;;;0.80;;
11086;SDS011;5597;47.588;9.642;2022-09-09T17:11:26;2.20;;;0.90;;
11086;SDS011;5597;47.588;9.642;2022-09-09T17:13:52;2.23;;;1.00;;
11086;SDS011;5597;47.588;9.642;2022-09-09T17:16:19;2.03;;;0.90;;
11086;SDS011;5597;47.588;9.642;2022-09-09T17:18:47;2.77;;;0.83;;
11086;SDS011;5597;47.588;9.642;2022-09-09T17:21:14;1.73;;;0.83;;
11086;SDS011;5597;47.588;9.642;2022-09-09T17:23:42;1.30;;;1.10;;
11086;SDS011;5597;47.588;9.642;2022-09-09T17:26:09;1.20;;;0.90;;
11086;SDS011;5597;47.588;9.642;2022-09-09T17:28:37;1.93;;;1.23;;